sensor_id;sensor_type;location;lat;lon;timestamp;P1;durP1;ratioP1;P2;durP2;ratioP2
25531;SDS011;13429;48.816;9.118;2022-12-29T00:01:37;2.05;;;1.15;;
25531;SDS011;13429;48.816;9.118;2022-12-29T00:04:03;2.25;;;1.33;;
25531;SDS011;13429;48.816;9.118;2022-12-29T00:06:30;5.10;;;1.45;;
25531;SDS011;13429;48.816;9.118;2022-12-29T00:08:56;3.42;;;1.70;;
25531;SDS011;13429;48.816;9.118;2022-12-29T00:11:23;4.47;;;1.55;;
25531;SDS011;13429;48.816;9.118;2022-12-29T00:13:50;4.05;;;2.05;;
25531;SDS011;13429;48.816;9.118;2022-12-29T00:16:40;4.13;;;1.20;;
25531;SDS011;13429;48.816;9.118;2022-12-29T00:19:07;3.83;;;1.27;;
25531;SDS011;13429;48.816;9.118;2022-12-29T00:21:53;3.03;;;1.20;;
25531;SDS011;13429;48.816;9.118;2022-12-29T00:24:38;3.05;;;1.17;;
25531;SDS011;13429;48.816;9.118;2022-12-29T00:27:22;4.03;;;1.15;;
25531;SDS011;13429;48.816;9.118;2022-12-29T00:30:11;2.55;;;1.30;;
25531;SDS011;13429;48.816;9.118;2022-12-29T00:32:56;4.05;;;1.35;;
25531;SDS011;13429;48.816;9.118;2022-12-29T00:35:45;2.75;;;1.58;;
25531;SDS011;13429;48.816;9.118;2022-12-29T00:38:11;2.83;;;1.52;;
25531;SDS011;13429;48.816;9.118;2022-12-29T00:40:57;5.97;;;1.42;;
25531;SDS011;13429;48.816;9.118;2022-12-29T00:43:41;2.70;;;1.27;;
25531;SDS011;13429;48.816;9.118;2022-12-29T00:46:26;3.83;;;1.27;;
25531;SDS011;13429;48.816;9.118;2022-12-29T00:48:52;4.82;;;1.60;;
25531;SDS011;13429;48.816;9.118;2022-12-29T00:51:37;5.18;;;1.50;;
25531;SDS011;13429;48.816;9.118;2022-12-29T00:54:03;4.97;;;1.33;;
25531;SDS011;13429;48.816;9.118;2022-12-29T00:56:29;2.95;;;1.20;;
25531;SDS011;13429;48.816;9.118;2022-12-29T00:58:55;5.00;;;2.15;;
25531;SDS011;13429;48.816;9.118;2022-12-29T01:01:21;3.42;;;1.10;;
25531;SDS011;13429;48.816;9.118;2022-12-29T01:03:47;2.55;;;1.45;;
25531;SDS011;13429;48.816;9.118;2022-12-29T01:06:14;3.25;;;1.13;;
25531;SDS011;13429;48.816;9.118;2022-12-29T01:08:40;3.63;;;1.20;;
25531;SDS011;13429;48.816;9.118;2022-12-29T01:11:07;4.65;;;1.38;;
25531;SDS011;13429;48.816;9.118;2022-12-29T01:13:33;3.13;;;1.35;;
25531;SDS011;13429;48.816;9.118;2022-12-29T01:15:59;2.08;;;1.00;;
25531;SDS011;13429;48.816;9.118;2022-12-29T01:18:25;3.92;;;1.23;;
25531;SDS011;13429;48.816;9.118;2022-12-29T01:20:58;2.92;;;1.20;;
25531;SDS011;13429;48.816;9.118;2022-12-29T01:23:25;3.92;;;1.55;;
25531;SDS011;13429;48.816;9.118;2022-12-29T01:25:51;2.05;;;0.98;;
25531;SDS011;13429;48.816;9.118;2022-12-29T01:28:17;8.30;;;1.23;;
25531;SDS011;13429;48.816;9.118;2022-12-29T01:30:43;2.38;;;1.20;;
25531;SDS011;13429;48.816;9.118;2022-12-29T01:33:09;2.00;;;1.08;;
25531;SDS011;13429;48.816;9.118;2022-12-29T01:35:35;4.07;;;0.68;;
25531;SDS011;13429;48.816;9.118;2022-12-29T01:38:01;2.53;;;1.20;;
25531;SDS011;13429;48.816;9.118;2022-12-29T01:40:27;5.95;;;1.33;;
25531;SDS011;13429;48.816;9.118;2022-12-29T01:42:53;2.90;;;1.10;;
25531;SDS011;13429;48.816;9.118;2022-12-29T01:45:19;4.03;;;1.30;;
25531;SDS011;13429;48.816;9.118;2022-12-29T01:47:55;4.53;;;1.38;;
25531;SDS011;13429;48.816;9.118;2022-12-29T01:50:28;3.38;;;0.88;;
25531;SDS011;13429;48.816;9.118;2022-12-29T01:53:02;4.88;;;0.73;;
25531;SDS011;13429;48.816;9.118;2022-12-29T01:55:30;1.73;;;0.77;;
25531;SDS011;13429;48.816;9.118;2022-12-29T01:57:59;1.38;;;0.80;;
25531;SDS011;13429;48.816;9.118;2022-12-29T02:00:27;3.45;;;1.08;;
25531;SDS011;13429;48.816;9.118;2022-12-29T02:02:53;1.40;;;0.80;;
25531;SDS011;13429;48.816;9.118;2022-12-29T02:05:27;2.95;;;0.98;;
25531;SDS011;13429;48.816;9.118;2022-12-29T02:07:54;1.38;;;0.82;;
25531;SDS011;13429;48.816;9.118;2022-12-29T02:10:21;3.42;;;1.10;;
25531;SDS011;13429;48.816;9.118;2022-12-29T02:12:49;1.75;;;0.90;;
25531;SDS011;13429;48.816;9.118;2022-12-29T02:15:14;3.03;;;0.90;;
25531;SDS011;13429;48.816;9.118;2022-12-29T02:17:49;3.47;;;0.90;;
25531;SDS011;13429;48.816;9.118;2022-12-29T02:25:20;3.00;;;1.10;;
25531;SDS011;13429;48.816;9.118;2022-12-29T02:33:23;2.25;;;1.40;;
25531;SDS011;13429;48.816;9.118;2022-12-29T02:38:49;2.10;;;1.00;;
25531;SDS011;13429;48.816;9.118;2022-12-29T02:41:40;1.48;;;0.80;;
25531;SDS011;13429;48.816;9.118;2022-12-29T02:46:33;2.22;;;1.00;;
25531;SDS011;13429;48.816;9.118;2022-12-29T02:53:54;4.75;;;1.30;;
25531;SDS011;13429;48.816;9.118;2022-12-29T02:56:40;1.67;;;0.90;;
25531;SDS011;13429;48.816;9.118;2022-12-29T02:59:06;7.68;;;1.35;;
25531;SDS011;13429;48.816;9.118;2022-12-29T03:11:46;3.80;;;1.50;;
25531;SDS011;13429;48.816;9.118;2022-12-29T03:14:33;2.72;;;1.10;;
25531;SDS011;13429;48.816;9.118;2022-12-29T03:17:28;1.80;;;0.70;;
25531;SDS011;13429;48.816;9.118;2022-12-29T03:19:59;3.22;;;0.90;;
25531;SDS011;13429;48.816;9.118;2022-12-29T03:22:27;3.53;;;1.15;;
25531;SDS011;13429;48.816;9.118;2022-12-29T03:25:20;2.72;;;0.65;;
25531;SDS011;13429;48.816;9.118;2022-12-29T03:27:45;2.47;;;0.68;;
25531;SDS011;13429;48.816;9.118;2022-12-29T03:30:12;5.82;;;1.00;;
25531;SDS011;13429;48.816;9.118;2022-12-29T03:32:43;2.97;;;1.05;;
25531;SDS011;13429;48.816;9.118;2022-12-29T03:35:11;5.05;;;0.95;;
25531;SDS011;13429;48.816;9.118;2022-12-29T03:37:39;2.05;;;0.85;;
25531;SDS011;13429;48.816;9.118;2022-12-29T03:40:06;2.53;;;1.02;;
25531;SDS011;13429;48.816;9.118;2022-12-29T03:42:33;3.40;;;1.20;;
25531;SDS011;13429;48.816;9.118;2022-12-29T03:45:00;3.53;;;0.90;;
25531;SDS011;13429;48.816;9.118;2022-12-29T03:47:26;1.70;;;0.80;;
25531;SDS011;13429;48.816;9.118;2022-12-29T03:49:53;2.92;;;0.75;;
25531;SDS011;13429;48.816;9.118;2022-12-29T03:52:19;3.28;;;1.08;;
25531;SDS011;13429;48.816;9.118;2022-12-29T03:54:45;2.40;;;0.73;;
25531;SDS011;13429;48.816;9.118;2022-12-29T03:57:11;2.28;;;1.17;;
25531;SDS011;13429;48.816;9.118;2022-12-29T03:59:37;1.52;;;1.00;;
25531;SDS011;13429;48.816;9.118;2022-12-29T04:02:03;1.98;;;0.77;;
25531;SDS011;13429;48.816;9.118;2022-12-29T04:04:29;1.95;;;0.98;;
25531;SDS011;13429;48.816;9.118;2022-12-29T04:06:55;2.72;;;1.40;;
25531;SDS011;13429;48.816;9.118;2022-12-29T04:09:21;2.60;;;0.80;;
25531;SDS011;13429;48.816;9.118;2022-12-29T04:11:47;2.75;;;0.93;;
25531;SDS011;13429;48.816;9.118;2022-12-29T04:14:13;2.38;;;0.90;;
25531;SDS011;13429;48.816;9.118;2022-12-29T04:16:39;3.78;;;1.20;;
25531;SDS011;13429;48.816;9.118;2022-12-29T04:19:06;3.10;;;1.10;;
25531;SDS011;13429;48.816;9.118;2022-12-29T04:21:32;4.72;;;1.30;;
25531;SDS011;13429;48.816;9.118;2022-12-29T04:23:58;1.65;;;1.00;;
25531;SDS011;13429;48.816;9.118;2022-12-29T04:26:24;3.28;;;1.05;;
25531;SDS011;13429;48.816;9.118;2022-12-29T04:28:50;2.45;;;1.45;;
25531;SDS011;13429;48.816;9.118;2022-12-29T04:31:16;7.00;;;1.10;;
25531;SDS011;13429;48.816;9.118;2022-12-29T04:33:42;5.78;;;1.00;;
25531;SDS011;13429;48.816;9.118;2022-12-29T04:36:08;3.92;;;0.80;;
25531;SDS011;13429;48.816;9.118;2022-12-29T04:38:34;1.75;;;0.85;;
25531;SDS011;13429;48.816;9.118;2022-12-29T04:41:01;1.73;;;0.95;;
25531;SDS011;13429;48.816;9.118;2022-12-29T04:43:27;2.05;;;1.00;;
25531;SDS011;13429;48.816;9.118;2022-12-29T04:45:53;1.38;;;1.00;;
25531;SDS011;13429;48.816;9.118;2022-12-29T04:48:20;3.55;;;0.90;;
25531;SDS011;13429;48.816;9.118;2022-12-29T04:50:47;2.08;;;1.08;;
25531;SDS011;13429;48.816;9.118;2022-12-29T04:53:14;3.58;;;1.20;;
25531;SDS011;13429;48.816;9.118;2022-12-29T04:55:40;3.70;;;1.05;;
25531;SDS011;13429;48.816;9.118;2022-12-29T04:58:06;3.78;;;1.65;;
25531;SDS011;13429;48.816;9.118;2022-12-29T05:00:32;1.98;;;0.95;;
25531;SDS011;13429;48.816;9.118;2022-12-29T05:02:58;4.32;;;1.30;;
25531;SDS011;13429;48.816;9.118;2022-12-29T05:05:24;3.97;;;1.38;;
25531;SDS011;13429;48.816;9.118;2022-12-29T05:07:50;7.13;;;1.25;;
25531;SDS011;13429;48.816;9.118;2022-12-29T05:10:16;3.33;;;1.33;;
25531;SDS011;13429;48.816;9.118;2022-12-29T05:12:42;2.30;;;1.20;;
25531;SDS011;13429;48.816;9.118;2022-12-29T05:15:09;1.92;;;1.25;;
25531;SDS011;13429;48.816;9.118;2022-12-29T05:17:36;3.35;;;1.50;;
25531;SDS011;13429;48.816;9.118;2022-12-29T05:20:02;4.28;;;2.20;;
25531;SDS011;13429;48.816;9.118;2022-12-29T05:22:28;7.97;;;3.97;;
25531;SDS011;13429;48.816;9.118;2022-12-29T05:24:54;3.00;;;1.55;;
25531;SDS011;13429;48.816;9.118;2022-12-29T05:27:20;3.25;;;1.25;;
25531;SDS011;13429;48.816;9.118;2022-12-29T05:29:46;1.70;;;1.23;;
25531;SDS011;13429;48.816;9.118;2022-12-29T05:32:13;3.42;;;1.23;;
25531;SDS011;13429;48.816;9.118;2022-12-29T05:34:39;3.13;;;1.10;;
25531;SDS011;13429;48.816;9.118;2022-12-29T05:37:05;2.65;;;1.40;;
25531;SDS011;13429;48.816;9.118;2022-12-29T05:39:31;4.88;;;1.60;;
25531;SDS011;13429;48.816;9.118;2022-12-29T05:41:57;1.55;;;1.05;;
25531;SDS011;13429;48.816;9.118;2022-12-29T05:44:23;3.42;;;1.23;;
25531;SDS011;13429;48.816;9.118;2022-12-29T05:46:49;2.13;;;1.45;;
25531;SDS011;13429;48.816;9.118;2022-12-29T05:49:15;2.65;;;1.60;;
25531;SDS011;13429;48.816;9.118;2022-12-29T05:51:41;8.98;;;1.90;;
25531;SDS011;13429;48.816;9.118;2022-12-29T05:54:08;3.38;;;1.10;;
25531;SDS011;13429;48.816;9.118;2022-12-29T05:56:34;3.38;;;1.42;;
25531;SDS011;13429;48.816;9.118;2022-12-29T05:59:00;1.35;;;0.98;;
25531;SDS011;13429;48.816;9.118;2022-12-29T06:01:26;2.33;;;1.33;;
25531;SDS011;13429;48.816;9.118;2022-12-29T06:03:52;2.25;;;1.20;;
25531;SDS011;13429;48.816;9.118;2022-12-29T06:06:18;1.88;;;1.35;;
25531;SDS011;13429;48.816;9.118;2022-12-29T06:08:44;2.67;;;1.33;;
25531;SDS011;13429;48.816;9.118;2022-12-29T06:11:10;3.30;;;1.70;;
25531;SDS011;13429;48.816;9.118;2022-12-29T06:13:36;3.47;;;1.73;;
25531;SDS011;13429;48.816;9.118;2022-12-29T06:16:02;3.00;;;1.45;;
25531;SDS011;13429;48.816;9.118;2022-12-29T06:18:28;4.25;;;1.40;;
25531;SDS011;13429;48.816;9.118;2022-12-29T06:20:58;2.55;;;1.05;;
25531;SDS011;13429;48.816;9.118;2022-12-29T06:23:25;2.43;;;1.23;;
25531;SDS011;13429;48.816;9.118;2022-12-29T06:25:50;2.70;;;1.60;;
25531;SDS011;13429;48.816;9.118;2022-12-29T06:28:16;4.07;;;1.25;;
25531;SDS011;13429;48.816;9.118;2022-12-29T06:30:43;2.15;;;0.95;;
25531;SDS011;13429;48.816;9.118;2022-12-29T06:33:10;3.03;;;1.58;;
25531;SDS011;13429;48.816;9.118;2022-12-29T06:35:36;3.78;;;1.52;;
25531;SDS011;13429;48.816;9.118;2022-12-29T06:38:02;4.30;;;1.45;;
25531;SDS011;13429;48.816;9.118;2022-12-29T06:40:28;3.08;;;1.42;;
25531;SDS011;13429;48.816;9.118;2022-12-29T06:42:55;4.47;;;1.40;;
25531;SDS011;13429;48.816;9.118;2022-12-29T06:45:21;2.50;;;1.42;;
25531;SDS011;13429;48.816;9.118;2022-12-29T06:47:47;3.83;;;1.33;;
25531;SDS011;13429;48.816;9.118;2022-12-29T06:50:13;2.75;;;1.42;;
25531;SDS011;13429;48.816;9.118;2022-12-29T06:52:39;2.03;;;1.33;;
25531;SDS011;13429;48.816;9.118;2022-12-29T06:55:05;2.40;;;1.05;;
25531;SDS011;13429;48.816;9.118;2022-12-29T06:57:31;1.33;;;0.95;;
25531;SDS011;13429;48.816;9.118;2022-12-29T06:59:57;3.40;;;1.38;;
25531;SDS011;13429;48.816;9.118;2022-12-29T07:02:23;4.68;;;1.55;;
25531;SDS011;13429;48.816;9.118;2022-12-29T07:04:52;5.80;;;1.60;;
25531;SDS011;13429;48.816;9.118;2022-12-29T07:07:19;4.25;;;1.35;;
25531;SDS011;13429;48.816;9.118;2022-12-29T07:09:45;2.65;;;1.20;;
25531;SDS011;13429;48.816;9.118;2022-12-29T07:12:11;3.42;;;1.45;;
25531;SDS011;13429;48.816;9.118;2022-12-29T07:14:37;3.90;;;1.58;;
25531;SDS011;13429;48.816;9.118;2022-12-29T07:17:04;6.03;;;2.13;;
25531;SDS011;13429;48.816;9.118;2022-12-29T07:19:31;3.05;;;1.10;;
25531;SDS011;13429;48.816;9.118;2022-12-29T07:21:57;3.85;;;1.67;;
25531;SDS011;13429;48.816;9.118;2022-12-29T07:24:23;3.15;;;1.30;;
25531;SDS011;13429;48.816;9.118;2022-12-29T07:26:50;3.85;;;1.33;;
25531;SDS011;13429;48.816;9.118;2022-12-29T07:29:16;3.70;;;1.77;;
25531;SDS011;13429;48.816;9.118;2022-12-29T07:31:42;1.95;;;1.10;;
25531;SDS011;13429;48.816;9.118;2022-12-29T07:34:08;3.70;;;1.40;;
25531;SDS011;13429;48.816;9.118;2022-12-29T07:36:34;2.50;;;1.10;;
25531;SDS011;13429;48.816;9.118;2022-12-29T07:39:01;1.60;;;1.10;;
25531;SDS011;13429;48.816;9.118;2022-12-29T07:41:27;2.35;;;0.95;;
25531;SDS011;13429;48.816;9.118;2022-12-29T07:43:53;4.80;;;1.52;;
25531;SDS011;13429;48.816;9.118;2022-12-29T07:46:19;2.85;;;1.50;;
25531;SDS011;13429;48.816;9.118;2022-12-29T07:48:45;2.60;;;0.98;;
25531;SDS011;13429;48.816;9.118;2022-12-29T07:51:11;2.63;;;1.63;;
25531;SDS011;13429;48.816;9.118;2022-12-29T07:53:37;4.18;;;1.88;;
25531;SDS011;13429;48.816;9.118;2022-12-29T07:56:03;4.15;;;1.40;;
25531;SDS011;13429;48.816;9.118;2022-12-29T07:58:29;2.25;;;1.38;;
25531;SDS011;13429;48.816;9.118;2022-12-29T08:00:55;5.38;;;1.30;;
25531;SDS011;13429;48.816;9.118;2022-12-29T08:03:21;1.63;;;1.30;;
25531;SDS011;13429;48.816;9.118;2022-12-29T08:05:47;2.88;;;1.30;;
25531;SDS011;13429;48.816;9.118;2022-12-29T08:08:13;3.60;;;1.55;;
25531;SDS011;13429;48.816;9.118;2022-12-29T08:10:39;3.70;;;1.30;;
25531;SDS011;13429;48.816;9.118;2022-12-29T08:13:05;2.97;;;1.10;;
25531;SDS011;13429;48.816;9.118;2022-12-29T08:15:32;5.95;;;1.63;;
25531;SDS011;13429;48.816;9.118;2022-12-29T08:17:58;5.80;;;1.55;;
25531;SDS011;13429;48.816;9.118;2022-12-29T08:20:24;6.60;;;1.75;;
25531;SDS011;13429;48.816;9.118;2022-12-29T08:22:59;1.88;;;1.00;;
25531;SDS011;13429;48.816;9.118;2022-12-29T08:25:27;3.60;;;1.63;;
25531;SDS011;13429;48.816;9.118;2022-12-29T08:27:53;2.22;;;1.35;;
25531;SDS011;13429;48.816;9.118;2022-12-29T08:30:19;5.68;;;1.30;;
25531;SDS011;13429;48.816;9.118;2022-12-29T08:32:45;5.97;;;1.35;;
25531;SDS011;13429;48.816;9.118;2022-12-29T08:35:12;3.10;;;1.02;;
25531;SDS011;13429;48.816;9.118;2022-12-29T08:37:38;3.15;;;1.23;;
25531;SDS011;13429;48.816;9.118;2022-12-29T08:40:04;3.17;;;1.52;;
25531;SDS011;13429;48.816;9.118;2022-12-29T08:42:31;3.88;;;1.33;;
25531;SDS011;13429;48.816;9.118;2022-12-29T08:44:58;3.03;;;0.90;;
25531;SDS011;13429;48.816;9.118;2022-12-29T08:47:24;3.70;;;1.30;;
25531;SDS011;13429;48.816;9.118;2022-12-29T08:49:50;3.03;;;1.10;;
25531;SDS011;13429;48.816;9.118;2022-12-29T08:52:16;2.80;;;1.33;;
25531;SDS011;13429;48.816;9.118;2022-12-29T08:54:42;2.38;;;0.93;;
25531;SDS011;13429;48.816;9.118;2022-12-29T08:57:08;3.33;;;1.40;;
25531;SDS011;13429;48.816;9.118;2022-12-29T08:59:34;1.77;;;1.05;;
25531;SDS011;13429;48.816;9.118;2022-12-29T09:02:00;2.63;;;1.30;;
25531;SDS011;13429;48.816;9.118;2022-12-29T09:04:27;2.53;;;1.30;;
25531;SDS011;13429;48.816;9.118;2022-12-29T09:06:53;2.58;;;1.30;;
25531;SDS011;13429;48.816;9.118;2022-12-29T09:09:19;2.45;;;1.20;;
25531;SDS011;13429;48.816;9.118;2022-12-29T09:11:45;4.47;;;1.38;;
25531;SDS011;13429;48.816;9.118;2022-12-29T09:14:11;3.20;;;1.20;;
25531;SDS011;13429;48.816;9.118;2022-12-29T09:16:38;1.90;;;1.20;;
25531;SDS011;13429;48.816;9.118;2022-12-29T09:19:04;2.83;;;1.20;;
25531;SDS011;13429;48.816;9.118;2022-12-29T09:21:30;2.65;;;1.02;;
25531;SDS011;13429;48.816;9.118;2022-12-29T09:23:56;3.05;;;0.85;;
25531;SDS011;13429;48.816;9.118;2022-12-29T09:26:22;1.33;;;0.82;;
25531;SDS011;13429;48.816;9.118;2022-12-29T09:28:48;2.35;;;1.02;;
25531;SDS011;13429;48.816;9.118;2022-12-29T09:31:14;3.25;;;0.90;;
25531;SDS011;13429;48.816;9.118;2022-12-29T09:33:40;4.40;;;1.00;;
25531;SDS011;13429;48.816;9.118;2022-12-29T09:36:06;3.40;;;1.25;;
25531;SDS011;13429;48.816;9.118;2022-12-29T09:38:32;2.25;;;1.23;;
25531;SDS011;13429;48.816;9.118;2022-12-29T09:41:00;5.50;;;1.40;;
25531;SDS011;13429;48.816;9.118;2022-12-29T09:43:35;2.33;;;1.15;;
25531;SDS011;13429;48.816;9.118;2022-12-29T09:49:04;2.60;;;1.08;;
25531;SDS011;13429;48.816;9.118;2022-12-29T09:54:02;2.60;;;1.10;;
25531;SDS011;13429;48.816;9.118;2022-12-29T09:56:29;3.17;;;1.08;;
25531;SDS011;13429;48.816;9.118;2022-12-29T10:01:30;3.53;;;1.10;;
25531;SDS011;13429;48.816;9.118;2022-12-29T10:03:57;2.13;;;1.00;;
25531;SDS011;13429;48.816;9.118;2022-12-29T10:06:25;3.70;;;1.42;;
25531;SDS011;13429;48.816;9.118;2022-12-29T10:16:40;2.75;;;1.05;;
25531;SDS011;13429;48.816;9.118;2022-12-29T10:19:16;3.60;;;1.13;;
25531;SDS011;13429;48.816;9.118;2022-12-29T10:24:25;4.28;;;1.17;;
25531;SDS011;13429;48.816;9.118;2022-12-29T10:26:53;4.50;;;1.00;;
25531;SDS011;13429;48.816;9.118;2022-12-29T10:29:25;4.57;;;1.50;;
25531;SDS011;13429;48.816;9.118;2022-12-29T10:34:26;1.85;;;1.17;;
25531;SDS011;13429;48.816;9.118;2022-12-29T10:36:54;2.00;;;1.10;;
25531;SDS011;13429;48.816;9.118;2022-12-29T10:41:57;3.30;;;1.30;;
25531;SDS011;13429;48.816;9.118;2022-12-29T10:44:24;2.92;;;1.10;;
25531;SDS011;13429;48.816;9.118;2022-12-29T10:47:01;2.17;;;1.30;;
25531;SDS011;13429;48.816;9.118;2022-12-29T10:49:29;4.40;;;1.38;;
25531;SDS011;13429;48.816;9.118;2022-12-29T10:51:57;3.03;;;1.10;;
25531;SDS011;13429;48.816;9.118;2022-12-29T10:54:29;2.67;;;1.42;;
25531;SDS011;13429;48.816;9.118;2022-12-29T10:57:05;1.77;;;1.00;;
25531;SDS011;13429;48.816;9.118;2022-12-29T10:59:35;5.22;;;1.65;;
25531;SDS011;13429;48.816;9.118;2022-12-29T11:06:59;4.47;;;1.35;;
25531;SDS011;13429;48.816;9.118;2022-12-29T11:09:27;2.72;;;1.00;;
25531;SDS011;13429;48.816;9.118;2022-12-29T11:11:55;5.15;;;1.05;;
25531;SDS011;13429;48.816;9.118;2022-12-29T11:14:25;3.08;;;1.13;;
25531;SDS011;13429;48.816;9.118;2022-12-29T11:17:01;4.50;;;1.20;;
25531;SDS011;13429;48.816;9.118;2022-12-29T11:19:29;3.42;;;1.40;;
25531;SDS011;13429;48.816;9.118;2022-12-29T11:24:44;3.13;;;1.30;;
25531;SDS011;13429;48.816;9.118;2022-12-29T11:27:19;2.08;;;0.93;;
25531;SDS011;13429;48.816;9.118;2022-12-29T11:29:48;3.63;;;1.23;;
25531;SDS011;13429;48.816;9.118;2022-12-29T11:32:19;1.27;;;0.80;;
25531;SDS011;13429;48.816;9.118;2022-12-29T11:34:45;2.30;;;1.00;;
25531;SDS011;13429;48.816;9.118;2022-12-29T11:37:13;2.10;;;0.85;;
25531;SDS011;13429;48.816;9.118;2022-12-29T11:42:12;1.13;;;0.60;;
25531;SDS011;13429;48.816;9.118;2022-12-29T11:44:41;1.83;;;0.82;;
25531;SDS011;13429;48.816;9.118;2022-12-29T11:47:09;2.63;;;0.77;;
25531;SDS011;13429;48.816;9.118;2022-12-29T11:49:38;2.35;;;0.85;;
25531;SDS011;13429;48.816;9.118;2022-12-29T11:52:04;4.30;;;0.85;;
25531;SDS011;13429;48.816;9.118;2022-12-29T11:54:31;4.88;;;1.15;;
25531;SDS011;13429;48.816;9.118;2022-12-29T11:56:58;1.70;;;1.15;;
25531;SDS011;13429;48.816;9.118;2022-12-29T11:59:36;4.28;;;1.27;;
25531;SDS011;13429;48.816;9.118;2022-12-29T12:04:48;5.93;;;1.45;;
25531;SDS011;13429;48.816;9.118;2022-12-29T12:07:59;3.33;;;1.33;;
25531;SDS011;13429;48.816;9.118;2022-12-29T12:10:06;2.53;;;1.30;;
25531;SDS011;13429;48.816;9.118;2022-12-29T12:12:38;3.08;;;1.30;;
25531;SDS011;13429;48.816;9.118;2022-12-29T12:15:05;6.55;;;1.60;;
25531;SDS011;13429;48.816;9.118;2022-12-29T12:20:14;3.63;;;1.52;;
25531;SDS011;13429;48.816;9.118;2022-12-29T12:22:43;3.45;;;1.25;;
25531;SDS011;13429;48.816;9.118;2022-12-29T12:27:50;1.83;;;1.25;;
25531;SDS011;13429;48.816;9.118;2022-12-29T12:30:18;3.08;;;1.75;;
25531;SDS011;13429;48.816;9.118;2022-12-29T12:35:38;3.00;;;1.48;;
25531;SDS011;13429;48.816;9.118;2022-12-29T12:38:12;2.17;;;1.25;;
25531;SDS011;13429;48.816;9.118;2022-12-29T13:03:15;5.55;;;1.73;;
25531;SDS011;13429;48.816;9.118;2022-12-29T13:13:54;2.03;;;1.02;;
25531;SDS011;13429;48.816;9.118;2022-12-29T13:19:11;3.72;;;1.58;;
25531;SDS011;13429;48.816;9.118;2022-12-29T13:29:15;4.00;;;1.80;;
25531;SDS011;13429;48.816;9.118;2022-12-29T13:34:41;4.30;;;1.60;;
25531;SDS011;13429;48.816;9.118;2022-12-29T13:37:10;2.92;;;1.70;;
25531;SDS011;13429;48.816;9.118;2022-12-29T13:39:39;4.25;;;1.45;;
25531;SDS011;13429;48.816;9.118;2022-12-29T13:42:06;4.00;;;1.60;;
25531;SDS011;13429;48.816;9.118;2022-12-29T13:44:43;3.13;;;1.33;;
25531;SDS011;13429;48.816;9.118;2022-12-29T13:47:57;4.10;;;1.70;;
25531;SDS011;13429;48.816;9.118;2022-12-29T13:49:56;4.13;;;1.58;;
25531;SDS011;13429;48.816;9.118;2022-12-29T13:52:40;3.58;;;1.73;;
25531;SDS011;13429;48.816;9.118;2022-12-29T13:58:05;4.60;;;1.42;;
25531;SDS011;13429;48.816;9.118;2022-12-29T14:06:15;2.85;;;1.63;;
25531;SDS011;13429;48.816;9.118;2022-12-29T14:08:42;4.15;;;1.50;;
25531;SDS011;13429;48.816;9.118;2022-12-29T14:11:09;2.60;;;1.70;;
25531;SDS011;13429;48.816;9.118;2022-12-29T14:13:39;3.85;;;1.40;;
25531;SDS011;13429;48.816;9.118;2022-12-29T14:16:06;2.42;;;1.48;;
25531;SDS011;13429;48.816;9.118;2022-12-29T14:18:32;2.40;;;1.48;;
25531;SDS011;13429;48.816;9.118;2022-12-29T14:28:25;3.97;;;1.48;;
25531;SDS011;13429;48.816;9.118;2022-12-29T14:30:52;3.80;;;1.73;;
25531;SDS011;13429;48.816;9.118;2022-12-29T14:33:18;3.08;;;1.67;;
25531;SDS011;13429;48.816;9.118;2022-12-29T14:35:45;4.53;;;1.50;;
25531;SDS011;13429;48.816;9.118;2022-12-29T14:38:21;4.00;;;1.20;;
25531;SDS011;13429;48.816;9.118;2022-12-29T14:40:48;3.20;;;1.50;;
25531;SDS011;13429;48.816;9.118;2022-12-29T14:43:18;15.23;;;1.92;;
25531;SDS011;13429;48.816;9.118;2022-12-29T14:45:48;2.22;;;1.35;;
25531;SDS011;13429;48.816;9.118;2022-12-29T14:48:36;2.00;;;1.42;;
25531;SDS011;13429;48.816;9.118;2022-12-29T14:51:16;3.20;;;1.60;;
25531;SDS011;13429;48.816;9.118;2022-12-29T14:53:47;5.45;;;2.00;;
25531;SDS011;13429;48.816;9.118;2022-12-29T14:56:14;4.03;;;1.52;;
25531;SDS011;13429;48.816;9.118;2022-12-29T14:59:13;4.10;;;1.40;;
25531;SDS011;13429;48.816;9.118;2022-12-29T15:01:46;2.65;;;1.33;;
25531;SDS011;13429;48.816;9.118;2022-12-29T15:04:18;2.50;;;1.23;;
25531;SDS011;13429;48.816;9.118;2022-12-29T15:11:49;3.00;;;1.40;;
25531;SDS011;13429;48.816;9.118;2022-12-29T15:16:42;4.10;;;1.83;;
25531;SDS011;13429;48.816;9.118;2022-12-29T15:19:20;3.72;;;2.17;;
25531;SDS011;13429;48.816;9.118;2022-12-29T15:21:46;2.03;;;1.38;;
25531;SDS011;13429;48.816;9.118;2022-12-29T15:24:12;2.45;;;1.60;;
25531;SDS011;13429;48.816;9.118;2022-12-29T15:26:40;7.03;;;1.48;;
25531;SDS011;13429;48.816;9.118;2022-12-29T15:31:51;3.50;;;1.90;;
25531;SDS011;13429;48.816;9.118;2022-12-29T15:34:19;4.55;;;1.30;;
25531;SDS011;13429;48.816;9.118;2022-12-29T15:36:46;6.88;;;2.17;;
25531;SDS011;13429;48.816;9.118;2022-12-29T15:39:26;4.85;;;2.03;;
25531;SDS011;13429;48.816;9.118;2022-12-29T15:41:56;6.53;;;2.22;;
25531;SDS011;13429;48.816;9.118;2022-12-29T15:44:29;4.38;;;1.10;;
25531;SDS011;13429;48.816;9.118;2022-12-29T15:46:57;4.53;;;0.90;;
25531;SDS011;13429;48.816;9.118;2022-12-29T15:49:27;2.53;;;0.93;;
25531;SDS011;13429;48.816;9.118;2022-12-29T15:51:53;1.35;;;0.63;;
25531;SDS011;13429;48.816;9.118;2022-12-29T15:54:20;1.73;;;0.80;;
25531;SDS011;13429;48.816;9.118;2022-12-29T15:56:47;2.53;;;1.00;;
25531;SDS011;13429;48.816;9.118;2022-12-29T15:59:33;4.95;;;0.95;;
25531;SDS011;13429;48.816;9.118;2022-12-29T16:02:00;1.38;;;0.70;;
25531;SDS011;13429;48.816;9.118;2022-12-29T16:04:27;1.52;;;0.73;;
25531;SDS011;13429;48.816;9.118;2022-12-29T16:06:58;1.27;;;0.90;;
25531;SDS011;13429;48.816;9.118;2022-12-29T16:09:29;2.80;;;0.87;;
25531;SDS011;13429;48.816;9.118;2022-12-29T16:11:57;1.50;;;0.65;;
25531;SDS011;13429;48.816;9.118;2022-12-29T16:14:27;1.55;;;0.52;;
25531;SDS011;13429;48.816;9.118;2022-12-29T16:16:56;1.30;;;0.90;;
25531;SDS011;13429;48.816;9.118;2022-12-29T16:19:36;1.95;;;0.90;;
25531;SDS011;13429;48.816;9.118;2022-12-29T16:22:04;2.70;;;0.90;;
25531;SDS011;13429;48.816;9.118;2022-12-29T16:24:36;4.18;;;0.95;;
25531;SDS011;13429;48.816;9.118;2022-12-29T16:27:37;1.65;;;0.80;;
25531;SDS011;13429;48.816;9.118;2022-12-29T16:29:56;1.45;;;0.70;;
25531;SDS011;13429;48.816;9.118;2022-12-29T16:32:27;1.60;;;0.93;;
25531;SDS011;13429;48.816;9.118;2022-12-29T16:37:38;1.98;;;1.13;;
25531;SDS011;13429;48.816;9.118;2022-12-29T16:40:22;1.92;;;0.93;;
25531;SDS011;13429;48.816;9.118;2022-12-29T16:42:49;1.30;;;1.17;;
25531;SDS011;13429;48.816;9.118;2022-12-29T16:50:26;3.90;;;1.30;;
25531;SDS011;13429;48.816;9.118;2022-12-29T16:52:52;5.28;;;1.98;;
25531;SDS011;13429;48.816;9.118;2022-12-29T16:55:18;6.78;;;2.40;;
25531;SDS011;13429;48.816;9.118;2022-12-29T16:57:45;3.58;;;1.95;;
25531;SDS011;13429;48.816;9.118;2022-12-29T17:00:19;3.85;;;1.98;;
25531;SDS011;13429;48.816;9.118;2022-12-29T17:02:45;4.32;;;2.20;;
25531;SDS011;13429;48.816;9.118;2022-12-29T17:05:15;2.47;;;1.77;;
25531;SDS011;13429;48.816;9.118;2022-12-29T17:07:42;4.25;;;1.85;;
25531;SDS011;13429;48.816;9.118;2022-12-29T17:10:08;2.88;;;1.58;;
25531;SDS011;13429;48.816;9.118;2022-12-29T17:12:34;3.92;;;1.52;;
25531;SDS011;13429;48.816;9.118;2022-12-29T17:17:38;2.30;;;1.45;;
25531;SDS011;13429;48.816;9.118;2022-12-29T17:22:40;3.92;;;1.90;;
25531;SDS011;13429;48.816;9.118;2022-12-29T17:25:06;4.05;;;2.53;;
25531;SDS011;13429;48.816;9.118;2022-12-29T17:30:01;4.45;;;3.78;;
25531;SDS011;13429;48.816;9.118;2022-12-29T17:32:27;12.55;;;9.35;;
25531;SDS011;13429;48.816;9.118;2022-12-29T17:34:54;13.20;;;11.27;;
25531;SDS011;13429;48.816;9.118;2022-12-29T17:37:26;4.38;;;3.50;;
25531;SDS011;13429;48.816;9.118;2022-12-29T17:39:52;3.55;;;2.33;;